Airfield :
LOGIN :

Register | Disclaimer

   EN    FR    IT 

 










Legend :    VFR   Marginal VFR   IFR   Intensive IFR   Very Intensive IFR
Visi :
Ceiling :
>= 8 km
>= 3000ft
5 to 8 km
1000 to 3000 ft
1500m to 5 km
500 to 1000 ft
800 to 1500m
200 to 500 ft
< 800m
< 200 ft
Symbols :   Thunderstorms  Fog  Heavy snow  Heavy precipitations  Wind > 20 kt
SIGMETs :     Misc.  Thunderstorms  Icing  Turbulence  Mountain Waves  Volcanic Ashes







- Airport Elevation : 1 ft
- Download approach charts


EGCK - Caernarfon

CURRENT METAR :
  • 201920Z AUTO 23011KT 9999 FEW047/// 17/13 Q1012

EXPIRED METARs :
  • 201850Z AUTO 22008KT 9999 OVC046/// 17/14 Q1012
  • 201820Z AUTO 22007KT 9999 OVC049/// 17/13 Q1012
  • 201750Z AUTO 22006KT 9999 NCD 17/13 Q1011
  • 201720Z AUTO 23009KT 9999 OVC048/// 17/13 Q1011
  • 201650Z 23009KT 9999 FEW036 OVC045 17/13 Q1011

TAF TAF EGCK
Valid from the 20 at 18:00 until the 21 at 03:00 UTC


201700Z 2018/2103 24009KT 9999 SCT030
No reported NOTAMs for that airfield.



MET'MAP, your aeronautical weather chart ! - Copyright ORBIFLY December 2007 - Disclaimer

ORBIFLY MET'MAP TEAM :

Programming & Development : Alexandra Zaïnal
Concept & Development : Baudouin d'Aumeries
Co-Development & Prog : Marc-Olivier Méhu
Technical & hardware support : Manuel Goepfert

Contact : metmap@orbifly.com




SOURCES & CREDITS :

   NOAA